Have a Safe July 4th! 

Flight Track Log - Related Links

Times and Time Zones

All times are in EST time to prevent confusion due to time zone crossing. See the ASQ3843 flight status page for this flight to view local times or setup timezone preferences in your user account.

Time Position Orientation Groundspeed Altitude Reporting Facility
EST Latitude Longitude Course Direction KTS MPH feet Rate Location/Type
Sun 08:21:58 PM 40.0072 -82.9681 276° West 185 213 2,700  Level Indianapolis Center
Sun 08:22:29 PM 40.0097 -83.0069 275° West 200 230 4,000 2,137 Climbing Indianapolis Center
Sun 08:23:11 PM 39.9861 -83.0550 237° Southwest 257 296 5,300 1,935 Climbing Indianapolis Center
Sun 08:23:31 PM 39.9658 -83.0528 175° South 231 266 6,000 1,926 Climbing Indianapolis Center
Sun 08:24:00 PM 39.9016 -82.3308 90° East  Level Estimated
Sun 08:24:32 PM 39.9108 -83.0058 147° Southeast 264 304 7,900  Level Indianapolis Center
Sun 08:25:00 PM 39.8773 -82.1907 84° East  Level Estimated
Sun 08:25:34 PM 39.9047 -82.9042 94° East 280 322 10,000  Level Indianapolis Center
Sun 08:26:00 PM 39.8529 -82.0507 90° East  Level Estimated
Sun 08:26:35 PM 39.8969 -82.7903 95° East 305 351 11,100  Level Indianapolis Center
Sun 08:27:37 PM 39.9058 -82.6611 85° East 350 403 12,100 1,220 Climbing Indianapolis Center
Sun 08:28:38 PM 39.9150 -82.5256 85° East 368 423 13,600 1,415 Climbing Indianapolis Center
Sun 08:29:40 PM 39.9231 -82.3903 86° East 378 435 15,000 1,317 Climbing Indianapolis Center
Sun 08:30:41 PM 39.9350 -82.2228 85° East 388 447 16,300 1,171 Climbing Indianapolis Center
Sun 08:31:43 PM 39.9439 -82.0781 85° East 399 459 17,400 878 Climbing Indianapolis Center
Sun 08:32:44 PM 39.9536 -81.9317 85° East 405 466 18,100 878 Climbing Indianapolis Center
Sun 08:33:46 PM 39.9619 -81.7814 86° East 414 476 19,200 1,016 Climbing Indianapolis Center
Sun 08:34:48 PM 39.9714 -81.6211 86° East 422 486 20,200 1,073 Climbing Indianapolis Center
Sun 08:35:49 PM 39.9808 -81.4622 86° East 433 498 21,400 1,024 Climbing Indianapolis Center
Sun 08:36:51 PM 39.9900 -81.3022 86° East 438 504 22,300 1,122 Climbing Indianapolis Center
Sun 08:37:52 PM 39.9981 -81.1414 86° East 442 509 23,700 1,317 Climbing Indianapolis Center
Sun 08:38:54 PM 39.9603 -80.9861 108° East 451 519 25,000 1,317 Climbing Indianapolis Center
Sun 08:39:55 PM 39.9078 -80.8381 115° Southeast 446 513 26,400 945 Climbing Indianapolis Center
Sun 08:41:01 PM 39.8506 -80.6664 113° Southeast 443 510 27,000 283 Climbing Cleveland Center
Sun 08:42:02 PM 39.7953 -80.5128 115° Southeast 469 540 27,000  Level Cleveland Center
Sun 08:43:04 PM 39.7383 -80.3550 115° Southeast 483 556 27,000  Level Cleveland Center
Sun 08:44:06 PM 39.6797 -80.1942 115° Southeast 496 571 27,000  Level Cleveland Center
Sun 08:45:08 PM 39.6203 -80.0317 115° Southeast 502 578 27,000  Level Cleveland Center
Sun 08:45:54 PM 39.5742 -79.8994 114° Southeast 497 572 27,000  Level Washington Center
Sun 08:46:54 PM 39.5344 -79.7219 106° East 497 572 27,000  Level Washington Center
Sun 08:47:52 PM 39.5031 -79.5453 103° East 497 572 27,000  Level Washington Center
Sun 08:48:52 PM 39.4711 -79.3661 103° East 502 578 27,000 -843 Level Washington Center
Sun 08:49:53 PM 39.4314 -79.1706 105° East 507 583 25,300 -2,164 Descending Washington Center
Sun 08:50:54 PM 39.4028 -79.0081 103° East 488 562 22,600 -2,571 Descending Washington Center
Sun 08:51:52 PM 39.3736 -78.8508 103° East 467 537 20,200 -2,034 Descending Washington Center
Sun 08:52:52 PM 39.3522 -78.7211 102° East 435 501 18,600 -1,850 Descending Washington Center
Sun 08:53:52 PM 39.3264 -78.5858 104° East 407 468 16,500 -2,213 Descending Washington Center
Sun 08:54:54 PM 39.3025 -78.4508 103° East 388 447 14,100 -2,213 Descending Washington Center
Sun 08:55:54 PM 39.2719 -78.3342 109° East 363 418 12,000 -1,550 Descending Washington Center
Sun 08:56:54 PM 39.2197 -78.2411 126° Southeast 331 381 11,000 -1,000 Descending Washington Center
Sun 08:57:54 PM 39.1717 -78.1511 125° Southeast 320 368 10,000 -966 Descending Washington Center
Sun 08:58:52 PM 39.1256 -78.0639 124° Southeast 305 351 9,100 -814 Descending Washington Center
Sun 08:59:52 PM 39.0814 -77.9794 124° Southeast 294 338 8,400 -843 Descending Washington Center
Sun 09:00:53 PM 39.0353 -77.8953 125° Southeast 294 338 7,400 -984 Descending Washington Center
Sun 09:01:54 PM 38.9908 -77.8083 123° Southeast 283 326 6,400 -706 Descending Washington Center
Sun 09:02:52 PM 38.9633 -77.7219 112° Southeast 260 299 6,000 -203 Descending Washington Center
Sun 09:03:52 PM 38.9442 -77.6308 105° East 260 299 6,000  Level Washington Center
Sun 09:04:35 PM 38.9000 -77.6000 151° Southeast 262 302 6,000  Level Potomac TRACON
Sun 09:05:29 PM 38.8333 -77.5667 159° South 236 272 6,000 -105 Level Potomac TRACON
Sun 09:06:29 PM 38.7667 -77.5833 191° South 242 278 5,800 -550 Descending Potomac TRACON
Sun 09:07:29 PM 38.7167 -77.5500 153° Southeast 246 283 4,900 -950 Descending Potomac TRACON
Sun 09:08:29 PM 38.7500 -77.4833 57° Northeast 208 239 3,900 -1,000 Descending Potomac TRACON
Sun 09:09:29 PM 38.8000 -77.4667 15° North 177 204 2,900 -842 Descending Potomac TRACON
Sun 09:10:23 PM 38.8333 -77.4667 360° North 163 188 2,300 -667 Descending Potomac TRACON
Sun 09:11:17 PM 38.8667 -77.4667 360° North 126 145 1,700 -700 Descending Potomac TRACON
Sun 09:12:23 PM 38.9167 -77.4667 360° North 116 133 900 -727 Descending Potomac TRACON

Login

Don't have an account? Register now (free) for customized features, flight alerts, and more!